createdAt,value
2023-02-08T00:01:31.092Z,66.86
2023-02-08T00:03:59.858Z,67.06
2023-02-08T00:06:28.475Z,67.67
2023-02-08T00:08:57.242Z,67.53
2023-02-08T00:11:33.425Z,67.96
2023-02-08T00:14:02.320Z,68.34
2023-02-08T00:16:32.112Z,68.61
2023-02-08T00:19:00.643Z,69.17
2023-02-08T00:21:29.118Z,69.53
2023-02-08T00:23:58.081Z,69.66
2023-02-08T00:26:27.121Z,70.04
2023-02-08T00:28:55.975Z,70.22
2023-02-08T00:31:24.923Z,70.52
2023-02-08T00:33:54.854Z,70.79
2023-02-08T00:36:23.643Z,70.51
2023-02-08T00:38:52.213Z,70.60
2023-02-08T00:49:33.885Z,69.97
2023-02-08T00:52:05.142Z,70.83
2023-02-08T00:54:33.847Z,71.20
2023-02-08T00:57:02.579Z,71.45
2023-02-08T00:59:37.306Z,71.77
2023-02-08T01:02:06.266Z,71.67
2023-02-08T01:04:35.127Z,72.08
2023-02-08T01:07:05.711Z,71.93
2023-02-08T01:09:35.383Z,72.41
2023-02-08T01:12:05.511Z,72.16
2023-02-08T01:14:47.036Z,72.27
2023-02-08T01:17:16.153Z,73.10
2023-02-08T01:19:44.963Z,72.40
2023-02-08T01:22:15.200Z,72.86
2023-02-08T01:24:44.008Z,73.46
2023-02-08T01:27:12.502Z,73.21
2023-02-08T01:29:41.239Z,73.15
2023-02-08T01:32:09.693Z,73.25
2023-02-08T01:34:38.492Z,73.34
2023-02-08T01:37:07.001Z,73.38
2023-02-08T01:39:37.087Z,73.58
2023-02-08T01:42:06.177Z,73.58
2023-02-08T01:45:26.645Z,73.42
2023-02-08T01:48:03.065Z,73.58
2023-02-08T01:50:38.166Z,72.70
2023-02-08T01:53:07.206Z,73.02
2023-02-08T01:55:41.434Z,73.27
2023-02-08T01:58:13.555Z,73.42
2023-02-08T02:00:42.417Z,73.28
2023-02-08T02:03:15.281Z,73.27
2023-02-08T02:05:47.228Z,73.28
2023-02-08T02:08:15.835Z,73.39
2023-02-08T02:10:46.141Z,73.49
2023-02-08T02:13:21.509Z,73.61
2023-02-08T02:15:51.489Z,73.93
2023-02-08T02:18:27.218Z,74.10
2023-02-08T02:21:22.411Z,74.62
2023-02-08T02:24:31.470Z,74.97
2023-02-08T02:27:24.344Z,75.07
2023-02-08T02:34:01.826Z,75.47
2023-02-08T02:36:45.974Z,75.51
2023-02-08T02:39:25.313Z,75.04
2023-02-08T02:42:21.448Z,75.66
2023-02-08T02:45:08.133Z,76.04
2023-02-08T02:47:48.254Z,77.01
2023-02-08T02:50:25.526Z,77.42
2023-02-08T02:53:01.905Z,77.35
2023-02-08T02:55:35.366Z,77.64
2023-02-08T02:58:05.085Z,78.06
2023-02-08T03:00:34.994Z,78.97
2023-02-08T03:03:03.567Z,78.95
2023-02-08T03:05:33.416Z,79.20
2023-02-08T03:08:23.654Z,79.44
2023-02-08T03:11:16.196Z,79.34
2023-02-08T03:14:09.790Z,79.11
2023-02-08T03:17:01.468Z,78.90
2023-02-08T03:19:38.210Z,79.14
2023-02-08T03:22:16.414Z,79.04
2023-02-08T03:24:54.413Z,79.71
2023-02-08T03:27:32.887Z,79.80
2023-02-08T03:30:05.145Z,79.98
2023-02-08T03:32:42.663Z,80.34
2023-02-08T03:35:16.991Z,80.56
2023-02-08T03:37:52.988Z,81.03
2023-02-08T03:40:28.512Z,81.46
2023-02-08T03:43:01.982Z,81.55
2023-02-08T03:45:34.674Z,81.75
2023-02-08T03:48:08.202Z,81.26
2023-02-08T03:50:40.942Z,82.86
2023-02-08T03:53:12.576Z,88.92
2023-02-08T03:55:43.670Z,91.35
2023-02-08T03:58:19.734Z,87.03
2023-02-08T04:00:56.361Z,88.63
2023-02-08T04:03:28.376Z,80.62
2023-02-08T04:05:57.498Z,80.28
2023-02-08T04:08:27.770Z,82.77
2023-02-08T04:10:56.549Z,80.96
2023-02-08T04:13:25.005Z,79.28
2023-02-08T04:15:53.573Z,79.74
2023-02-08T04:18:21.996Z,80.57
2023-02-08T04:20:50.577Z,81.36
2023-02-08T04:23:19.049Z,82.01
2023-02-08T04:25:48.989Z,82.50
2023-02-08T04:28:17.506Z,82.83
2023-02-08T04:30:45.949Z,83.25
2023-02-08T04:33:15.019Z,83.09
2023-02-08T04:35:44.119Z,83.48
2023-02-08T04:38:12.699Z,83.15
2023-02-08T04:40:41.509Z,82.97
2023-02-08T04:43:11.476Z,83.32
2023-02-08T04:45:39.851Z,83.14
2023-02-08T04:48:08.472Z,82.93
2023-02-08T04:50:36.968Z,82.68
2023-02-08T04:53:06.522Z,82.40
2023-02-08T04:55:35.312Z,82.14
2023-02-08T04:58:04.086Z,82.13
2023-02-08T05:00:34.058Z,81.71
2023-02-08T05:03:02.492Z,81.52
2023-02-08T05:05:30.957Z,81.68
2023-02-08T05:07:59.589Z,81.53
2023-02-08T05:10:28.527Z,81.39
2023-02-08T05:12:57.255Z,81.20
2023-02-08T05:15:25.786Z,81.55
2023-02-08T05:17:55.709Z,81.37
2023-02-08T05:20:24.155Z,81.59
2023-02-08T05:22:52.702Z,81.56
2023-02-08T05:25:21.262Z,81.94
2023-02-08T05:27:49.817Z,82.09
2023-02-08T05:30:18.710Z,81.64
2023-02-08T05:32:47.212Z,81.84
2023-02-08T05:35:17.337Z,82.84
2023-02-08T05:37:45.885Z,83.28
2023-02-08T05:40:14.406Z,83.27
2023-02-08T05:42:43.225Z,83.32
2023-02-08T05:45:12.048Z,83.24
2023-02-08T05:47:40.498Z,83.24
2023-02-08T05:50:09.661Z,82.82
2023-02-08T05:52:39.557Z,82.91
2023-02-08T05:55:09.325Z,82.59
2023-02-08T05:57:46.138Z,81.85
2023-02-08T06:00:24.403Z,80.56
2023-02-08T06:02:52.954Z,80.35
2023-02-08T06:05:21.580Z,80.33
2023-02-08T06:07:51.495Z,80.32
2023-02-08T06:10:20.288Z,79.57
2023-02-08T06:12:48.877Z,78.80
2023-02-08T06:15:17.519Z,78.59
2023-02-08T06:17:46.027Z,78.32
2023-02-08T06:20:14.623Z,78.63
2023-02-08T06:22:43.075Z,78.12
2023-02-08T06:25:12.984Z,78.11
2023-02-08T06:27:41.632Z,78.42
2023-02-08T06:30:11.906Z,77.95
2023-02-08T06:32:40.354Z,78.11
2023-02-08T06:35:09.749Z,78.00
2023-02-08T06:37:38.386Z,78.45
2023-02-08T06:40:08.120Z,78.22
2023-02-08T06:42:38.099Z,78.34
2023-02-08T06:45:10.977Z,78.93
2023-02-08T06:47:40.745Z,78.97
2023-02-08T06:50:10.319Z,79.12
2023-02-08T06:52:39.902Z,79.06
2023-02-08T06:55:09.006Z,78.93
2023-02-08T06:57:38.878Z,78.92
2023-02-08T07:00:08.947Z,78.65
2023-02-08T07:02:37.368Z,78.06
2023-02-08T07:05:05.940Z,77.68
2023-02-08T07:07:34.429Z,77.36
2023-02-08T07:10:03.027Z,77.30
2023-02-08T07:12:34.668Z,76.69
2023-02-08T07:15:06.154Z,76.69
2023-02-08T07:17:34.601Z,76.50
2023-02-08T07:20:03.279Z,76.50
2023-02-08T07:22:34.590Z,76.25
2023-02-08T07:25:03.350Z,75.81
2023-02-08T07:27:33.105Z,76.15
2023-02-08T07:30:03.066Z,76.07
2023-02-08T07:32:34.361Z,76.13
2023-02-08T07:35:03.388Z,75.67
2023-02-08T07:37:33.033Z,75.26
2023-02-08T07:40:01.586Z,75.08
2023-02-08T07:42:29.941Z,75.29
2023-02-08T07:45:19.806Z,74.80
2023-02-08T07:47:50.792Z,74.61
2023-02-08T07:50:21.127Z,74.52
2023-02-08T07:52:49.556Z,74.43
2023-02-08T07:55:18.666Z,74.67
2023-02-08T07:57:49.094Z,74.67
2023-02-08T08:00:20.305Z,74.87
2023-02-08T08:03:05.733Z,74.76
2023-02-08T08:05:34.892Z,74.74
2023-02-08T08:08:07.119Z,74.09
2023-02-08T08:10:51.576Z,74.59
2023-02-08T08:13:21.007Z,75.20
2023-02-08T08:15:51.061Z,74.78
2023-02-08T08:18:19.580Z,74.92
2023-02-08T08:20:48.279Z,74.29
2023-02-08T08:23:16.904Z,74.73
2023-02-08T08:25:55.347Z,74.72
2023-02-08T08:28:24.508Z,74.61
2023-02-08T08:30:54.632Z,75.14
2023-02-08T08:33:23.333Z,75.00
2023-02-08T08:35:51.727Z,72.43
2023-02-08T08:38:20.423Z,70.44
2023-02-08T08:40:48.898Z,67.87
2023-02-08T08:43:17.440Z,65.70
2023-02-08T08:45:46.814Z,64.81
2023-02-08T08:48:17.458Z,63.22
2023-02-08T08:50:45.954Z,62.87
2023-02-08T08:53:14.612Z,63.09
2023-02-08T08:55:44.354Z,62.87
2023-02-08T08:58:14.413Z,61.22
2023-02-08T09:00:43.222Z,60.35
2023-02-08T09:03:11.932Z,60.22
2023-02-08T09:05:41.765Z,59.51
2023-02-08T09:08:10.204Z,58.47
2023-02-08T09:10:38.741Z,58.82
2023-02-08T09:13:07.149Z,58.08
2023-02-08T09:15:35.639Z,57.55
2023-02-08T09:18:04.230Z,57.62
2023-02-08T09:20:32.779Z,56.88
2023-02-08T09:23:02.813Z,56.83
2023-02-08T09:25:33.372Z,56.64
2023-02-08T09:28:02.081Z,56.35
2023-02-08T09:30:30.558Z,55.67
2023-02-08T09:32:59.064Z,54.42
2023-02-08T09:35:27.550Z,54.13
2023-02-08T09:37:58.264Z,54.71
2023-02-08T09:40:37.246Z,54.66
2023-02-08T09:43:12.140Z,54.60
2023-02-08T09:45:59.796Z,52.60
2023-02-08T09:48:33.948Z,52.08
2023-02-08T09:51:15.101Z,52.00
2023-02-08T09:53:50.285Z,47.37
2023-02-08T09:56:28.348Z,45.56
2023-02-08T09:58:58.448Z,44.70
2023-02-08T10:01:30.232Z,44.64
2023-02-08T10:04:03.138Z,44.08
2023-02-08T10:06:32.597Z,43.08
2023-02-08T10:09:06.140Z,41.43
2023-02-08T10:11:51.369Z,41.83
2023-02-08T10:14:35.842Z,42.83
2023-02-08T10:17:16.173Z,42.38
2023-02-08T10:19:59.768Z,42.20
2023-02-08T10:22:40.985Z,41.84
2023-02-08T10:25:29.480Z,41.96
2023-02-08T10:28:21.701Z,42.62
2023-02-08T10:30:58.716Z,42.18
2023-02-08T10:33:34.003Z,41.82
2023-02-08T10:36:02.682Z,41.25
2023-02-08T10:38:45.746Z,41.07
2023-02-08T10:41:21.578Z,41.14
2023-02-08T10:43:56.092Z,42.15
2023-02-08T10:46:29.833Z,41.10
2023-02-08T10:49:09.500Z,41.63
2023-02-08T10:51:38.440Z,41.06
2023-02-08T10:54:07.359Z,40.97
2023-02-08T10:56:47.855Z,40.48
2023-02-08T10:59:22.088Z,39.86
2023-02-08T11:01:52.072Z,39.72
2023-02-08T11:04:21.055Z,40.46
2023-02-08T11:06:51.431Z,40.67
2023-02-08T11:09:27.051Z,40.21
2023-02-08T11:11:56.731Z,39.83
2023-02-08T11:14:45.392Z,39.84
2023-02-08T11:17:28.541Z,39.32
2023-02-08T11:19:58.032Z,39.09
2023-02-08T11:22:31.109Z,39.64
2023-02-08T11:25:03.402Z,39.09
2023-02-08T11:27:36.293Z,38.62
2023-02-08T11:30:25.734Z,38.42
2023-02-08T11:33:19.397Z,38.08
2023-02-08T11:36:10.409Z,37.94
2023-02-08T11:38:44.164Z,37.42
2023-02-08T11:41:19.133Z,37.36
2023-02-08T11:44:01.743Z,37.72
2023-02-08T11:46:35.144Z,36.94
2023-02-08T11:49:04.663Z,35.84
2023-02-08T11:51:36.020Z,36.43
2023-02-08T11:54:05.846Z,36.20
2023-02-08T11:56:36.014Z,37.75
2023-02-08T11:59:19.001Z,36.81
2023-02-08T12:01:48.989Z,36.20
2023-02-08T12:04:19.188Z,36.58
2023-02-08T12:07:15.373Z,36.96
2023-02-08T12:10:13.551Z,37.05
2023-02-08T12:13:09.551Z,36.17
2023-02-08T12:15:58.661Z,36.31
2023-02-08T12:18:54.018Z,36.02
2023-02-08T12:21:26.808Z,35.62
2023-02-08T12:23:58.706Z,34.48
2023-02-08T12:26:54.210Z,33.73
2023-02-08T12:29:47.396Z,33.82
2023-02-08T12:32:51.696Z,34.67
2023-02-08T12:35:57.381Z,33.93
2023-02-08T12:39:22.747Z,34.39
2023-02-08T12:42:26.076Z,33.63
2023-02-08T12:45:17.626Z,33.38
2023-02-08T12:48:04.679Z,32.87
2023-02-08T12:50:42.323Z,32.75
2023-02-08T12:53:21.139Z,32.55
2023-02-08T12:55:51.779Z,32.30
2023-02-08T12:58:29.660Z,32.80
2023-02-08T13:01:06.863Z,31.43
2023-02-08T13:03:49.008Z,31.54
2023-02-08T13:06:24.196Z,31.08
2023-02-08T13:08:57.852Z,31.38
2023-02-08T13:11:34.481Z,30.43
2023-02-08T13:14:09.966Z,30.67
2023-02-08T13:16:46.122Z,30.64
2023-02-08T13:19:41.998Z,31.34
2023-02-08T13:22:19.522Z,31.61
2023-02-08T13:25:06.272Z,33.17
2023-02-08T13:27:39.039Z,31.88
2023-02-08T13:30:09.515Z,33.27
2023-02-08T13:32:44.272Z,34.00
2023-02-08T13:35:19.073Z,33.61
2023-02-08T13:37:56.781Z,32.89
2023-02-08T13:40:29.539Z,33.26
2023-02-08T13:43:04.828Z,33.15
2023-02-08T13:45:37.630Z,32.28
2023-02-08T13:48:08.521Z,31.87
2023-02-08T13:50:46.673Z,31.79
2023-02-08T13:53:19.013Z,32.09
2023-02-08T13:55:58.824Z,32.17
2023-02-08T13:58:37.621Z,32.47
2023-02-08T14:01:20.692Z,32.76
2023-02-08T14:04:18.594Z,33.03
2023-02-08T14:06:51.518Z,32.85
2023-02-08T14:09:29.820Z,33.58
2023-02-08T14:12:03.852Z,33.51
2023-02-08T14:14:37.749Z,33.08
2023-02-08T14:17:29.850Z,33.11
2023-02-08T14:20:01.835Z,33.68
2023-02-08T14:22:40.428Z,33.28
2023-02-08T14:25:22.808Z,33.71
2023-02-08T14:27:54.129Z,33.73
2023-02-08T14:30:28.634Z,33.50
2023-02-08T14:33:16.422Z,33.72
2023-02-08T14:35:55.330Z,33.94
2023-02-08T14:38:52.921Z,33.66
2023-02-08T14:41:47.545Z,33.99
2023-02-08T14:45:01.323Z,34.13
2023-02-08T14:48:17.906Z,33.93
2023-02-08T14:51:04.322Z,34.42
2023-02-08T14:53:41.199Z,34.54
2023-02-08T14:56:20.146Z,34.33
2023-02-08T14:58:52.561Z,34.61
2023-02-08T15:01:44.045Z,34.74
2023-02-08T15:04:13.978Z,35.26
2023-02-08T15:07:00.197Z,35.35
2023-02-08T15:09:31.907Z,35.40
2023-02-08T15:12:04.110Z,35.46
2023-02-08T15:14:37.642Z,35.28
2023-02-08T15:17:07.344Z,35.57
2023-02-08T15:19:39.024Z,35.61
2023-02-08T15:22:31.484Z,35.90
2023-02-08T15:25:02.484Z,35.45
2023-02-08T15:27:34.232Z,35.95
2023-02-08T15:30:04.232Z,36.00
2023-02-08T15:32:32.683Z,36.18
2023-02-08T15:35:04.704Z,36.34
2023-02-08T15:37:35.479Z,35.80
2023-02-08T15:40:04.735Z,35.86
2023-02-08T15:42:36.004Z,35.81
2023-02-08T15:45:24.272Z,36.10
2023-02-08T15:47:54.590Z,36.31
2023-02-08T15:50:24.568Z,36.16
2023-02-08T15:53:00.139Z,36.51
2023-02-08T15:55:35.051Z,36.87
2023-02-08T15:58:07.983Z,36.66
2023-02-08T16:00:39.468Z,36.89
2023-02-08T16:03:18.374Z,37.31
2023-02-08T16:05:51.722Z,37.43
2023-02-08T16:08:24.408Z,37.78
2023-02-08T16:10:56.489Z,38.06
2023-02-08T16:13:28.960Z,38.17
2023-02-08T16:16:16.320Z,38.74
2023-02-08T16:18:46.484Z,38.88
2023-02-08T16:24:24.305Z,39.53
2023-02-08T16:27:06.468Z,39.86
2023-02-08T16:29:39.137Z,40.40
2023-02-08T16:32:21.162Z,40.76
2023-02-08T16:34:51.047Z,41.01
2023-02-08T16:37:28.260Z,41.32
2023-02-08T16:39:58.459Z,41.71
2023-02-08T16:42:31.344Z,41.66
2023-02-08T16:45:19.812Z,41.93
2023-02-08T16:47:53.382Z,41.97
2023-02-08T16:50:24.736Z,42.25
2023-02-08T16:52:57.715Z,42.16
2023-02-08T16:55:29.304Z,42.36
2023-02-08T16:57:59.998Z,42.72
2023-02-08T17:00:31.377Z,42.64
2023-02-08T17:03:16.457Z,41.97
2023-02-08T17:08:55.171Z,42.42
2023-02-08T17:11:24.595Z,42.88
2023-02-08T17:13:53.273Z,42.52
2023-02-08T17:16:24.262Z,42.67
2023-02-08T17:19:05.901Z,42.67
2023-02-08T17:21:34.585Z,42.89
2023-02-08T17:24:03.259Z,43.48
2023-02-08T17:26:38.545Z,43.74
2023-02-08T17:29:07.808Z,43.50
2023-02-08T17:31:36.821Z,44.31
2023-02-08T17:34:07.189Z,43.57
2023-02-08T17:36:37.944Z,44.36
2023-02-08T17:39:07.364Z,44.36
2023-02-08T17:41:36.013Z,44.36
2023-02-08T17:44:04.634Z,44.72
2023-02-08T17:46:33.186Z,45.22
2023-02-08T17:49:03.607Z,45.28
2023-02-08T17:51:34.380Z,45.53
2023-02-08T17:54:05.836Z,45.74
2023-02-08T17:56:35.602Z,45.50
2023-02-08T17:59:05.559Z,46.19
2023-02-08T18:01:35.094Z,45.87
2023-02-08T18:04:03.794Z,45.74
2023-02-08T18:06:33.629Z,45.96
2023-02-08T18:09:02.262Z,46.63
2023-02-08T18:11:30.773Z,46.70
2023-02-08T18:13:59.327Z,46.62
2023-02-08T18:16:29.104Z,47.02
2023-02-08T18:18:59.265Z,47.50
2023-02-08T18:21:30.185Z,47.54
2023-02-08T18:24:02.908Z,47.91
2023-02-08T18:26:33.639Z,48.22
2023-02-08T18:29:02.540Z,48.61
2023-02-08T18:31:31.598Z,48.64
2023-02-08T18:34:00.108Z,49.12
2023-02-08T18:36:28.580Z,49.47
2023-02-08T18:38:59.636Z,49.34
2023-02-08T18:41:30.347Z,49.58
2023-02-08T18:44:00.283Z,49.46
2023-02-08T18:46:30.442Z,50.18
2023-02-08T18:48:59.288Z,50.38
2023-02-08T18:51:30.294Z,50.87
2023-02-08T18:54:00.594Z,51.04
2023-02-08T18:56:29.424Z,51.12
2023-02-08T18:59:00.830Z,51.37
2023-02-08T19:01:29.291Z,51.12
2023-02-08T19:03:58.696Z,51.07
2023-02-08T19:06:31.445Z,51.39
2023-02-08T19:09:04.528Z,51.44
2023-02-08T19:11:36.444Z,51.90
2023-02-08T19:14:08.685Z,51.87
2023-02-08T19:16:38.732Z,51.99
2023-02-08T19:19:08.491Z,52.13
2023-02-08T19:21:37.163Z,52.01
2023-02-08T19:24:07.816Z,52.25
2023-02-08T19:26:40.643Z,52.43
2023-02-08T19:29:13.450Z,52.43
2023-02-08T19:31:42.885Z,52.73
2023-02-08T19:34:12.681Z,52.69
2023-02-08T19:36:44.533Z,52.65
2023-02-08T19:39:17.564Z,52.75
2023-02-08T19:41:46.812Z,52.99
2023-02-08T19:44:19.129Z,53.15
2023-02-08T19:46:49.675Z,53.12
2023-02-08T19:49:18.266Z,53.26
2023-02-08T19:51:47.219Z,53.85
2023-02-08T19:54:19.662Z,54.00
2023-02-08T19:56:50.306Z,53.88
2023-02-08T19:59:21.965Z,53.59
2023-02-08T20:01:50.905Z,53.70
2023-02-08T20:04:19.538Z,53.71
2023-02-08T20:06:49.102Z,53.35
2023-02-08T20:09:19.282Z,53.96
2023-02-08T20:11:57.918Z,53.78
2023-02-08T20:14:29.085Z,54.43
2023-02-08T20:16:57.788Z,54.46
2023-02-08T20:19:26.888Z,54.55
2023-02-08T20:21:55.421Z,54.70
2023-02-08T20:24:25.500Z,54.90
2023-02-08T20:26:54.281Z,55.30
2023-02-08T20:29:22.845Z,55.46
2023-02-08T20:31:55.723Z,55.62
2023-02-08T20:34:24.473Z,55.70
2023-02-08T20:37:06.466Z,56.01
2023-02-08T20:39:38.639Z,56.53
2023-02-08T20:42:07.646Z,56.54
2023-02-08T20:44:36.156Z,56.84
2023-02-08T20:47:04.584Z,57.29
2023-02-08T20:49:33.419Z,57.35
2023-02-08T20:52:01.857Z,57.63
2023-02-08T20:54:30.308Z,58.14
2023-02-08T20:57:00.155Z,58.33
2023-02-08T20:59:28.862Z,57.98
2023-02-08T21:01:57.368Z,58.24
2023-02-08T21:04:27.150Z,58.45
2023-02-08T21:06:55.657Z,58.61
2023-02-08T21:09:24.596Z,58.89
2023-02-08T21:11:53.408Z,59.28
2023-02-08T21:14:24.128Z,59.32
2023-02-08T21:16:56.296Z,59.37
2023-02-08T21:19:25.212Z,58.84
2023-02-08T21:21:54.731Z,58.85
2023-02-08T21:24:24.320Z,59.13
2023-02-08T21:26:53.177Z,58.82
2023-02-08T21:29:23.940Z,58.94
2023-02-08T21:31:54.428Z,58.66
2023-02-08T21:34:23.177Z,58.72
2023-02-08T21:36:51.886Z,58.43
2023-02-08T21:39:27.745Z,58.60
2023-02-08T21:42:03.807Z,58.44
2023-02-08T21:44:35.201Z,58.53
2023-02-08T21:47:04.033Z,58.62
2023-02-08T21:49:50.341Z,58.91
2023-02-08T21:52:36.334Z,59.08
2023-02-08T21:55:04.944Z,59.13
2023-02-08T21:57:39.798Z,59.44
2023-02-08T22:00:11.945Z,59.25
2023-02-08T22:02:43.868Z,59.43
2023-02-08T22:05:30.236Z,59.62
2023-02-08T22:08:00.533Z,59.80
2023-02-08T22:10:32.138Z,59.98
2023-02-08T22:13:01.105Z,60.20
2023-02-08T22:15:31.799Z,60.42
2023-02-08T22:18:02.953Z,60.70
2023-02-08T22:20:32.370Z,61.00
2023-02-08T22:23:01.937Z,61.05
2023-02-08T22:25:30.543Z,61.56
2023-02-08T22:27:59.666Z,61.70
2023-02-08T22:30:28.218Z,62.13
2023-02-08T22:32:58.186Z,62.29
2023-02-08T22:35:27.437Z,62.47
2023-02-08T22:37:56.066Z,62.64
2023-02-08T22:40:24.452Z,62.49
2023-02-08T22:42:52.984Z,62.56
2023-02-08T22:45:21.581Z,62.83
2023-02-08T22:47:50.106Z,63.13
2023-02-08T22:50:20.114Z,63.44
2023-02-08T22:52:48.620Z,63.45
2023-02-08T22:55:20.232Z,63.90
2023-02-08T22:57:48.878Z,64.35
2023-02-08T23:00:18.018Z,64.42
2023-02-08T23:02:46.685Z,64.17
2023-02-08T23:05:15.284Z,63.99
2023-02-08T23:07:45.199Z,64.26
2023-02-08T23:10:15.255Z,64.26
2023-02-08T23:12:44.061Z,64.00
2023-02-08T23:15:12.654Z,64.01
2023-02-08T23:17:41.237Z,64.36
2023-02-08T23:20:11.354Z,64.51
2023-02-08T23:22:39.986Z,64.86
2023-02-08T23:25:10.495Z,65.00
2023-02-08T23:27:39.259Z,64.47
2023-02-08T23:30:09.733Z,64.60
2023-02-08T23:32:38.655Z,65.12
2023-02-08T23:35:08.198Z,65.13
2023-02-08T23:37:36.834Z,65.36
2023-02-08T23:40:06.578Z,64.82
2023-02-08T23:42:36.492Z,65.18
2023-02-08T23:45:07.253Z,65.85
2023-02-08T23:47:36.007Z,65.78
2023-02-08T23:50:04.456Z,65.55
2023-02-08T23:52:32.862Z,65.64
2023-02-08T23:55:01.268Z,66.00
2023-02-08T23:57:33.898Z,66.34
